Archival Weather

Salzburg

Salzburg, Austria (LOWS)

Report from: Friday, May 26, 2023 1:20 PM CEST
Current time: Monday, June 17, 2024 11:57 AM CEST

Current weather – Weather history – Daily summaries
Weather forecast

Temperature22.0°C (71.6°F)
Dew point12.0°C (53.6°F)
Winds 8 kts (4.1 m/s, 9.2 mph) Vrb
Winds variableWinds variable from Northwest (310°) to North-Northeast (20°)
Visibility6.2 mi. (10 km)
Clouds Few clouds 3,500 ft. (1,067 m)
Scattered clouds 6,000 ft. (1,829 m)
Altimeter30.21 in.Hg (1023 mB)
Relative humidity53 %
Density altitude686 ft. (209 m)
Remarks No significant changes expected in the next two hours
Flight conditions Visual Meteorological Conditions
Raw dataLOWS 261120Z 34008KT 310V020 9999 FEW035 SCT060 22/12 Q1023 NOSIG
An error has occurred. This application may no longer respond until reloaded. Reload 🗙